Apuarema, Brazil
Current Conditions -  °F | °C
As of 5:00 AM on Sunday 26 Oct 2014 (Local Time) from SBIL Reporting Station
Light Rain Light Rain  
Wind Chill: 79°   Ceiling: Unl
Heat Index: 81°   Visibility: 4mi
Dew Point: 70°   Wind: 14mph
Humidity: 74%   Direction: 30°NNE
Pressure: NA   Gusts: NA
Location:  13.9°S, 39.75°W
Report Text: SBIL 260800Z 03012KT 7000 -RA SCT015 SCT020 FEW025TCU 26/21 Q1014
Loading
Personal Weather Stations






























Interactive Weather Map
Tropical Storm Tracking
New forecast layout! Learn more

10-Day Weather Forecast

Advertisements
Track Severe Weather on mobile